Time;durP1;ratioP1;P1;durP2;ratioP2;P2;SDS_P1;SDS_P2;PMS_P1;PMS_P2;Temp;Humidity;BMP_temperature;BMP_pressure;BME280_temperature;BME280_humidity;BME280_pressure;Samples;Min_cycle;Max_cycle;Signal;HPM_P1;HPM_P2
2021/04/02 00:00:26;;;;;;;26.42;10.48;;;;;;;4.44;100.00;101899.00;5040394;28;20056;-53
2021/04/02 00:02:53;;;;;;;21.88;9.88;;;;;;;4.39;100.00;101890.47;5045085;28;20052;-54
2021/04/02 00:05:21;;;;;;;17.63;10.25;;;;;;;4.33;100.00;101896.16;5037777;28;20052;-55
2021/04/02 00:07:48;;;;;;;26.38;10.00;;;;;;;4.26;100.00;101890.41;5040219;28;20064;-54
2021/04/02 00:10:17;;;;;;;19.63;10.38;;;;;;;4.35;100.00;101899.56;5044221;28;20363;-55
2021/04/02 00:12:45;;;;;;;17.45;9.95;;;;;;;4.31;100.00;101904.19;5043272;28;20044;-55
2021/04/02 00:15:14;;;;;;;21.48;10.07;;;;;;;4.33;100.00;101896.16;5043048;28;20051;-53
2021/04/02 00:17:41;;;;;;;16.95;9.25;;;;;;;4.29;100.00;101903.44;5042375;28;20037;-55
2021/04/02 00:20:10;;;;;;;18.25;11.05;;;;;;;4.26;100.00;101908.06;5044118;28;20033;-53
2021/04/02 00:22:41;;;;;;;19.67;10.90;;;;;;;4.22;100.00;101914.50;5038721;28;20037;-55
2021/04/02 00:25:09;;;;;;;18.00;9.70;;;;;;;4.17;100.00;101912.16;5046882;28;20037;-55
2021/04/02 00:27:36;;;;;;;19.02;10.95;;;;;;;4.23;100.00;101910.91;5041164;28;20053;-53
2021/04/02 00:30:11;;;;;;;21.95;10.60;;;;;;;4.19;100.00;101910.25;5041978;28;20053;-54
2021/04/02 00:32:38;;;;;;;27.40;11.55;;;;;;;4.18;100.00;101908.53;5042769;28;20045;-54
2021/04/02 00:35:10;;;;;;;22.85;11.68;;;;;;;4.12;100.00;101899.19;5038914;28;20262;-56
2021/04/02 00:37:37;;;;;;;22.40;9.73;;;;;;;4.12;100.00;101899.19;5043792;28;20053;-55
2021/04/02 00:40:07;;;;;;;18.88;10.80;;;;;;;4.01;100.00;101895.50;5041504;28;20060;-54
2021/04/02 00:42:34;;;;;;;22.77;10.55;;;;;;;4.02;100.00;101895.41;5042848;28;20069;-54
2021/04/02 00:45:01;;;;;;;25.45;12.45;;;;;;;3.92;100.00;101896.94;5042123;28;20037;-53
2021/04/02 00:47:28;;;;;;;26.58;12.38;;;;;;;3.84;100.00;101897.41;5041090;28;20451;-56
2021/04/02 00:49:55;;;;;;;19.73;11.90;;;;;;;3.78;100.00;101896.00;5045560;28;20061;-54
2021/04/02 00:52:22;;;;;;;26.58;12.07;;;;;;;3.77;100.00;101893.41;5039891;28;20052;-55
2021/04/02 00:54:49;;;;;;;18.83;10.40;;;;;;;3.70;100.00;101895.59;5044559;28;20057;-52
2021/04/02 00:57:16;;;;;;;22.10;11.45;;;;;;;3.83;100.00;101884.25;5046625;28;20045;-55
2021/04/02 00:59:43;;;;;;;29.05;12.38;;;;;;;3.73;100.00;101886.63;5042052;28;20045;-56
2021/04/02 01:02:10;;;;;;;18.35;11.07;;;;;;;3.71;100.00;101894.63;5039661;28;20112;-55
2021/04/02 01:04:37;;;;;;;22.63;11.63;;;;;;;3.67;100.00;101897.56;5042853;28;20440;-54
2021/04/02 01:07:05;;;;;;;21.73;10.63;;;;;;;3.66;100.00;101891.44;5040658;28;20033;-54
2021/04/02 01:09:32;;;;;;;23.38;13.52;;;;;;;3.63;100.00;101888.97;5041546;28;20040;-55
2021/04/02 01:11:59;;;;;;;25.02;12.43;;;;;;;3.61;100.00;101896.13;5046899;28;20045;-55
2021/04/02 01:14:26;;;;;;;23.48;12.20;;;;;;;3.56;100.00;101890.28;5046109;28;20095;-55
2021/04/02 01:16:53;;;;;;;26.10;11.82;;;;;;;3.48;100.00;101897.81;5041706;28;20159;-54
2021/04/02 01:19:27;;;;;;;23.70;12.88;;;;;;;3.55;100.00;101904.44;5044033;28;20342;-55
2021/04/02 01:21:57;;;;;;;20.35;11.57;;;;;;;3.43;100.00;101898.94;5039350;28;20463;-55
2021/04/02 01:24:48;;;;;;;21.42;12.98;;;;;;;3.45;100.00;101899.66;5045278;28;20041;-55
2021/04/02 01:27:31;;;;;;;24.92;12.65;;;;;;;3.44;100.00;101895.34;5042416;28;20091;-55
2021/04/02 01:30:05;;;;;;;30.05;13.20;;;;;;;3.45;100.00;101898.84;5041295;28;20368;-55
2021/04/02 01:32:35;;;;;;;23.15;12.43;;;;;;;3.41;100.00;101895.50;5044345;28;20267;-54
2021/04/02 01:35:12;;;;;;;21.00;11.45;;;;;;;3.48;100.00;101901.28;5040331;28;20052;-54
2021/04/02 01:37:42;;;;;;;22.80;11.73;;;;;;;3.44;100.00;101895.34;5043673;28;20394;-55
2021/04/02 01:40:11;;;;;;;24.75;13.15;;;;;;;3.28;100.00;101894.53;5039896;28;20328;-55
2021/04/02 01:42:39;;;;;;;24.83;13.23;;;;;;;3.43;100.00;101895.41;5041929;28;20045;-55
2021/04/02 01:45:10;;;;;;;24.67;12.98;;;;;;;3.33;100.00;101899.53;5040845;28;20041;-54
2021/04/02 01:47:37;;;;;;;22.30;12.07;;;;;;;3.23;100.00;101904.50;5041906;28;20053;-54
2021/04/02 01:50:07;;;;;;;23.23;12.07;;;;;;;3.18;100.00;101896.84;5045298;28;20041;-55
2021/04/02 01:52:34;;;;;;;23.17;12.65;;;;;;;3.12;100.00;101901.63;5041306;28;20040;-54
2021/04/02 01:55:02;;;;;;;21.83;10.55;;;;;;;3.18;100.00;101906.56;5040601;28;20060;-55
2021/04/02 01:57:29;;;;;;;23.58;12.07;;;;;;;3.27;100.00;101906.03;5042102;28;20045;-55
2021/04/02 01:59:57;;;;;;;27.13;11.82;;;;;;;3.15;100.00;101898.81;5040374;28;20060;-54
2021/04/02 02:02:26;;;;;;;31.98;11.93;;;;;;;3.25;100.00;101905.28;5042586;28;20041;-54
2021/04/02 02:04:54;;;;;;;20.95;11.05;;;;;;;3.07;100.00;101901.91;5041588;28;20059;-55
2021/04/02 02:07:21;;;;;;;20.45;11.73;;;;;;;3.12;100.00;101905.13;5044122;28;20383;-53
2021/04/02 02:09:50;;;;;;;21.20;11.15;;;;;;;3.10;100.00;101901.72;5037966;28;20052;-55
2021/04/02 02:12:18;;;;;;;25.05;12.35;;;;;;;3.07;100.00;101900.09;5044614;28;20045;-54
2021/04/02 02:14:49;;;;;;;27.33;13.57;;;;;;;3.04;100.00;101907.34;5041014;28;20436;-55
2021/04/02 02:17:20;;;;;;;22.02;12.10;;;;;;;2.92;100.00;101911.53;5043423;28;20126;-55
2021/04/02 02:19:49;;;;;;;22.45;12.02;;;;;;;2.84;100.00;101913.78;5043190;28;20360;-55
2021/04/02 02:22:18;;;;;;;21.33;12.60;;;;;;;2.85;100.00;101915.44;5042052;28;20454;-56
2021/04/02 02:24:46;;;;;;;23.83;12.52;;;;;;;2.81;100.00;101913.91;5044836;28;20064;-55
2021/04/02 02:27:13;;;;;;;28.67;13.07;;;;;;;2.72;100.00;101904.72;5035624;28;20068;-55
2021/04/02 02:29:40;;;;;;;21.67;11.88;;;;;;;2.83;100.00;101904.97;5040682;28;20036;-55
2021/04/02 02:32:07;;;;;;;23.90;12.65;;;;;;;2.73;100.00;101903.81;5045146;28;20034;-54
2021/04/02 02:34:34;;;;;;;31.70;13.63;;;;;;;2.63;100.00;101908.75;5043525;28;20451;-54
2021/04/02 02:37:03;;;;;;;22.70;13.52;;;;;;;2.67;100.00;101902.34;5047088;28;20371;-55
2021/04/02 02:39:30;;;;;;;28.60;12.98;;;;;;;2.69;100.00;101904.91;5042249;28;20037;-55
2021/04/02 02:41:57;;;;;;;32.60;12.98;;;;;;;2.55;100.00;101909.19;5044770;28;20044;-53
2021/04/02 02:44:24;;;;;;;28.67;13.88;;;;;;;2.50;100.00;101910.34;5043182;28;20056;-55
2021/04/02 02:46:51;;;;;;;25.50;12.63;;;;;;;2.58;100.00;101905.53;5047116;28;20049;-55
2021/04/02 02:49:19;;;;;;;21.80;14.23;;;;;;;2.47;100.00;101911.38;5041400;28;20143;-55
2021/04/02 02:51:47;;;;;;;24.88;15.43;;;;;;;2.47;100.00;101919.28;5044452;28;20050;-55
2021/04/02 02:54:20;;;;;;;32.38;16.75;;;;;;;2.47;100.00;101913.16;5044787;28;20478;-55
2021/04/02 02:56:49;;;;;;;32.92;16.08;;;;;;;2.43;100.00;101911.63;5041011;28;20045;-53
2021/04/02 02:59:18;;;;;;;37.58;15.85;;;;;;;2.35;100.00;101907.63;5045582;28;20045;-56
2021/04/02 03:01:46;;;;;;;29.33;15.40;;;;;;;2.27;100.00;101904.56;5044846;28;20048;-55
2021/04/02 03:04:15;;;;;;;26.42;14.25;;;;;;;2.24;100.00;101902.91;5047781;28;20248;-55
2021/04/02 03:06:43;;;;;;;33.40;17.40;;;;;;;2.08;100.00;101911.72;5045783;28;20309;-55
2021/04/02 03:09:13;;;;;;;28.80;16.17;;;;;;;2.16;100.00;101899.00;5044718;28;20059;-54
2021/04/02 03:11:43;;;;;;;33.88;16.38;;;;;;;2.04;100.00;101903.13;5043100;28;20319;-56
2021/04/02 03:14:11;;;;;;;35.80;17.98;;;;;;;2.09;100.00;101900.25;5040625;28;20049;-54
2021/04/02 03:16:42;;;;;;;30.33;16.15;;;;;;;2.10;100.00;101905.44;5045982;28;20048;-56
2021/04/02 03:19:14;;;;;;;36.50;18.52;;;;;;;2.06;100.00;101896.84;5044481;28;20049;-56
2021/04/02 03:21:41;;;;;;;34.55;17.00;;;;;;;1.86;100.00;101902.31;5044745;28;20049;-56
2021/04/02 03:24:09;;;;;;;35.83;18.65;;;;;;;1.88;100.00;101905.72;5048066;28;20040;-56
2021/04/02 03:26:37;;;;;;;32.70;18.02;;;;;;;1.76;100.00;101901.94;5043599;28;20048;-56
2021/04/02 03:29:05;;;;;;;30.88;17.70;;;;;;;1.68;100.00;101902.31;5048485;28;20071;-55
2021/04/02 03:31:35;;;;;;;33.50;17.48;;;;;;;1.64;100.00;101906.03;5050010;28;20052;-54
2021/04/02 03:34:02;;;;;;;30.23;17.20;;;;;;;1.63;100.00;101904.38;5045298;28;20041;-56
2021/04/02 03:36:32;;;;;;;28.58;16.63;;;;;;;1.80;100.00;101906.13;5039371;28;20040;-55
2021/04/02 03:39:00;;;;;;;34.97;16.77;;;;;;;1.82;100.00;101908.69;5046267;28;20049;-56
2021/04/02 03:41:28;;;;;;;33.85;17.60;;;;;;;1.61;100.00;101911.47;5044653;28;20048;-56
2021/04/02 03:43:56;;;;;;;34.45;19.40;;;;;;;1.47;100.00;101911.31;5025994;28;20045;-54
2021/04/02 03:46:25;;;;;;;44.45;20.50;;;;;;;1.80;100.00;101908.75;5044746;28;20128;-54
2021/04/02 03:48:53;;;;;;;38.50;20.30;;;;;;;1.72;100.00;101914.41;5043078;28;20102;-56
2021/04/02 03:51:24;;;;;;;38.28;17.40;;;;;;;1.56;100.00;101913.50;5046675;28;20040;-55
2021/04/02 03:53:54;;;;;;;30.27;17.35;;;;;;;1.58;100.00;101913.44;5047734;28;20041;-56
2021/04/02 03:56:23;;;;;;;35.97;17.70;;;;;;;1.60;100.00;101915.03;5035778;28;20041;-56
2021/04/02 03:58:52;;;;;;;33.25;18.10;;;;;;;1.66;100.00;101913.84;5043777;28;20061;-56
2021/04/02 04:01:20;;;;;;;27.80;15.73;;;;;;;1.61;100.00;101918.53;5044759;28;20056;-56
2021/04/02 04:03:50;;;;;;;30.90;17.02;;;;;;;1.70;100.00;101916.28;5044297;28;20052;-56
2021/04/02 04:06:18;;;;;;;30.80;16.55;;;;;;;1.37;100.00;101909.13;5040179;28;20045;-55
2021/04/02 04:08:45;;;;;;;30.85;16.70;;;;;;;1.47;100.00;101921.84;5041327;28;20041;-56
2021/04/02 04:11:13;;;;;;;29.98;16.98;;;;;;;1.40;100.00;101923.09;5045752;28;20045;-55
2021/04/02 04:13:42;;;;;;;38.00;18.52;;;;;;;1.67;100.00;101921.72;5038492;28;20516;-56
2021/04/02 04:16:11;;;;;;;34.03;18.85;;;;;;;1.50;100.00;101927.84;5043435;28;20045;-56
2021/04/02 04:18:39;;;;;;;35.38;18.08;;;;;;;1.33;100.00;101923.41;5042110;28;20352;-56
2021/04/02 04:21:07;;;;;;;28.77;17.00;;;;;;;1.38;100.00;101931.06;5041850;28;20040;-56
2021/04/02 04:23:36;;;;;;;35.28;17.30;;;;;;;1.60;100.00;101937.88;5041924;28;20418;-56
2021/04/02 04:26:04;;;;;;;30.38;15.20;;;;;;;1.63;100.00;101935.09;5039529;28;20049;-55
2021/04/02 04:28:31;;;;;;;29.48;16.17;;;;;;;1.60;100.00;101932.63;5044029;28;20052;-54
2021/04/02 04:31:01;;;;;;;26.38;14.90;;;;;;;1.65;100.00;101931.44;5043555;28;20045;-55
2021/04/02 04:33:29;;;;;;;27.67;14.15;;;;;;;1.68;100.00;101936.56;5048312;28;20040;-55
2021/04/02 04:35:57;;;;;;;32.15;14.05;;;;;;;1.62;100.00;101943.94;5040209;28;20322;-56
2021/04/02 04:38:25;;;;;;;28.63;13.65;;;;;;;1.75;100.00;101944.16;5041366;28;20045;-55
2021/04/02 04:40:54;;;;;;;27.70;15.35;;;;;;;1.64;100.00;101947.34;5046316;28;20112;-55
2021/04/02 04:43:21;;;;;;;25.55;14.52;;;;;;;1.70;100.00;101939.97;5039664;28;20052;-55
2021/04/02 04:45:48;;;;;;;25.35;14.82;;;;;;;1.59;100.00;101942.31;5039523;28;20045;-56
2021/04/02 04:48:15;;;;;;;25.55;13.30;;;;;;;1.62;100.00;101944.78;5045124;28;20048;-55
2021/04/02 04:50:42;;;;;;;27.45;14.77;;;;;;;1.71;100.00;101954.84;5043831;28;20041;-55
2021/04/02 04:53:13;;;;;;;24.77;14.48;;;;;;;1.57;100.00;101949.41;5043027;28;20221;-53
2021/04/02 04:55:41;;;;;;;23.63;13.75;;;;;;;1.65;100.00;101949.06;5038722;28;20052;-55
2021/04/02 04:58:11;;;;;;;28.95;13.80;;;;;;;1.52;100.00;101954.91;5044182;28;20045;-53
2021/04/02 05:00:39;;;;;;;31.98;16.48;;;;;;;1.49;100.00;101957.72;5037675;28;20053;-53
2021/04/02 05:03:07;;;;;;;31.27;16.25;;;;;;;1.53;100.00;101955.75;5046776;28;20041;-55
2021/04/02 05:05:36;;;;;;;28.15;14.38;;;;;;;1.53;100.00;101953.13;5040533;28;20329;-56
2021/04/02 05:08:05;;;;;;;33.17;17.02;;;;;;;1.44;100.00;101958.88;5043009;28;20060;-55
2021/04/02 05:10:32;;;;;;;26.75;14.95;;;;;;;1.49;100.00;101960.34;5042513;28;20548;-55
2021/04/02 05:13:01;;;;;;;22.90;15.15;;;;;;;1.53;100.00;101959.25;5045812;28;20044;-56
2021/04/02 05:15:28;;;;;;;30.13;14.93;;;;;;;1.51;100.00;101958.47;5043389;28;20041;-56
2021/04/02 05:17:56;;;;;;;24.98;13.60;;;;;;;1.40;100.00;101955.53;5038855;28;20048;-56
2021/04/02 05:20:40;;;;;;;24.50;13.50;;;;;;;1.37;100.00;101963.56;5046507;28;20044;-56
2021/04/02 05:23:07;;;;;;;26.27;13.45;;;;;;;1.43;100.00;101954.53;5044155;28;20447;-55
2021/04/02 05:25:34;;;;;;;21.83;14.18;;;;;;;1.47;100.00;101956.91;5041020;28;20049;-56
2021/04/02 05:28:02;;;;;;;30.17;15.25;;;;;;;1.46;100.00;101959.63;5040660;28;20048;-56
2021/04/02 05:30:29;;;;;;;32.85;13.25;;;;;;;1.47;100.00;101958.72;5041587;28;20037;-56
2021/04/02 05:32:56;;;;;;;24.17;13.20;;;;;;;1.44;100.00;101964.13;5039720;28;20041;-55
2021/04/02 05:35:23;;;;;;;31.48;13.40;;;;;;;1.30;100.00;101962.16;5041573;28;20052;-56
2021/04/02 05:37:50;;;;;;;21.83;12.13;;;;;;;1.33;100.00;101959.38;5045022;28;20045;-56
2021/04/02 05:40:18;;;;;;;29.00;13.75;;;;;;;1.35;100.00;101962.81;5038149;28;20417;-55
2021/04/02 05:42:49;;;;;;;22.45;12.43;;;;;;;1.59;100.00;101965.13;5038856;28;20037;-55
2021/04/02 05:45:18;;;;;;;23.90;12.55;;;;;;;1.87;100.00;101964.59;5040113;28;20041;-55
2021/04/02 05:47:49;;;;;;;23.05;12.57;;;;;;;1.96;100.00;101969.41;5039695;28;20332;-56
2021/04/02 05:50:16;;;;;;;29.02;13.70;;;;;;;2.03;100.00;101967.31;5037698;28;20053;-56
2021/04/02 05:52:45;;;;;;;23.70;11.90;;;;;;;2.19;100.00;101980.53;5043584;28;20060;-56
2021/04/02 05:55:13;;;;;;;21.73;12.40;;;;;;;2.30;100.00;101974.72;5033562;28;20045;-54
2021/04/02 05:57:40;;;;;;;27.60;11.77;;;;;;;2.46;100.00;101975.59;5037016;28;20113;-54
2021/04/02 06:00:08;;;;;;;22.33;11.38;;;;;;;2.63;100.00;101974.69;5037399;28;20047;-55
2021/04/02 06:02:36;;;;;;;17.92;10.77;;;;;;;2.62;100.00;101977.41;5037993;28;20037;-56
2021/04/02 06:05:03;;;;;;;18.75;11.20;;;;;;;2.84;100.00;101979.72;5042390;28;20418;-55
2021/04/02 06:07:30;;;;;;;21.48;10.85;;;;;;;2.99;100.00;101980.66;5044309;28;20045;-56
2021/04/02 06:09:57;;;;;;;21.67;12.07;;;;;;;3.22;100.00;101982.03;5042077;28;20344;-55
2021/04/02 06:12:25;;;;;;;18.13;10.07;;;;;;;3.17;100.00;101978.78;5045354;28;20328;-55
2021/04/02 06:14:51;;;;;;;17.75;9.38;;;;;;;3.39;100.00;101986.34;5040889;28;20064;-56
2021/04/02 06:17:18;;;;;;;14.13;8.90;;;;;;;3.35;100.00;101992.75;5042568;28;20074;-56
2021/04/02 06:20:03;;;;;;;16.02;8.63;;;;;;;3.78;100.00;101985.84;5042584;28;20336;-56
2021/04/02 06:22:30;;;;;;;17.17;9.73;;;;;;;3.93;100.00;101988.50;5040951;28;20053;-53
2021/04/02 06:25:03;;;;;;;16.30;9.15;;;;;;;4.20;100.00;101996.56;5043390;28;20041;-55
2021/04/02 06:27:30;;;;;;;16.13;8.02;;;;;;;4.35;100.00;101994.75;5045420;28;20056;-56
2021/04/02 06:30:03;;;;;;;18.33;10.00;;;;;;;4.12;100.00;101994.38;5025724;28;20049;-54
2021/04/02 06:32:34;;;;;;;11.70;7.13;;;;;;;4.30;100.00;101987.13;5042954;28;20348;-54
2021/04/02 06:35:07;;;;;;;15.23;7.65;;;;;;;4.12;100.00;101983.78;5039815;28;20041;-55
2021/04/02 06:37:35;;;;;;;16.65;7.82;;;;;;;4.54;100.00;101994.50;5043699;28;20320;-54
2021/04/02 06:40:03;;;;;;;11.23;7.05;;;;;;;4.50;100.00;101992.16;5042577;28;20049;-55
2021/04/02 06:42:32;;;;;;;13.68;7.22;;;;;;;4.85;100.00;101991.72;5044590;28;20408;-55
2021/04/02 06:44:59;;;;;;;14.02;6.65;;;;;;;4.88;100.00;101992.38;5041159;28;20048;-54
2021/04/02 06:47:33;;;;;;;12.05;6.85;;;;;;;4.67;100.00;101999.03;5042943;28;20047;-56
2021/04/02 06:50:00;;;;;;;13.50;6.10;;;;;;;4.90;100.00;102001.06;5041441;28;20345;-53
2021/04/02 06:52:30;;;;;;;9.32;5.82;;;;;;;5.06;100.00;102002.75;5043017;28;20034;-55
2021/04/02 06:54:58;;;;;;;13.52;6.45;;;;;;;5.33;100.00;102006.28;5040327;28;20049;-55
2021/04/02 06:57:25;;;;;;;13.73;6.50;;;;;;;5.10;100.00;102002.47;5040652;28;20046;-55
2021/04/02 06:59:53;;;;;;;10.55;6.55;;;;;;;5.54;100.00;102010.25;5041248;28;20076;-54
2021/04/02 07:02:23;;;;;;;11.25;5.75;;;;;;;5.29;100.00;102001.28;5040996;28;20306;-54
2021/04/02 07:04:52;;;;;;;13.00;5.20;;;;;;;5.31;100.00;102004.66;5043103;28;20057;-54
2021/04/02 07:07:20;;;;;;;10.63;5.03;;;;;;;5.46;100.00;102008.97;5039596;28;20539;-54
2021/04/02 07:09:50;;;;;;;9.32;4.68;;;;;;;5.60;100.00;102004.53;5042996;28;20095;-54
2021/04/02 07:12:18;;;;;;;12.88;6.05;;;;;;;5.84;100.00;102010.00;5037595;28;20071;-53
2021/04/02 07:14:49;;;;;;;9.27;5.72;;;;;;;5.18;100.00;102008.09;5041306;28;20056;-55
2021/04/02 07:17:16;;;;;;;8.45;5.75;;;;;;;5.29;100.00;102006.59;5040566;28;20043;-55
2021/04/02 07:19:44;;;;;;;8.80;4.87;;;;;;;5.36;100.00;102013.19;4996064;28;1331241;-55
2021/04/02 07:22:11;;;;;;;13.88;6.95;;;;;;;5.47;100.00;102015.97;5041355;28;20615;-56
2021/04/02 07:24:38;;;;;;;10.25;5.10;;;;;;;5.79;100.00;102018.28;5045216;28;20045;-54
2021/04/02 07:27:07;;;;;;;13.45;6.75;;;;;;;5.94;100.00;102018.19;5036975;28;20048;-54
2021/04/02 07:29:34;;;;;;;12.32;5.93;;;;;;;5.76;100.00;102017.66;5044241;28;20056;-55
2021/04/02 07:32:02;;;;;;;9.25;5.60;;;;;;;5.61;100.00;102016.84;5039221;28;20052;-56
2021/04/02 07:34:30;;;;;;;11.90;6.20;;;;;;;5.40;100.00;102005.88;5042067;28;20436;-56
2021/04/02 07:36:57;;;;;;;10.40;5.55;;;;;;;5.04;100.00;102017.91;5040884;28;20321;-55
2021/04/02 07:39:25;;;;;;;12.85;5.82;;;;;;;5.04;100.00;102008.13;5040935;28;20044;-55
2021/04/02 07:41:53;;;;;;;12.80;7.28;;;;;;;5.43;100.00;102022.44;5037964;28;20045;-54
2021/04/02 07:44:21;;;;;;;12.15;7.00;;;;;;;5.55;100.00;102025.22;5046525;28;20033;-55
2021/04/02 07:47:07;;;;;;;15.57;8.05;;;;;;;5.50;100.00;102022.84;5038617;28;20049;-54
2021/04/02 07:49:41;;;;;;;14.55;8.23;;;;;;;5.43;100.00;102027.72;5040995;28;20324;-55
2021/04/02 07:52:08;;;;;;;10.93;8.35;;;;;;;5.72;100.00;102024.09;5042980;28;20044;-56
2021/04/02 07:54:37;;;;;;;13.48;9.05;;;;;;;5.55;100.00;102020.75;5042099;28;20069;-54
2021/04/02 07:57:14;;;;;;;11.75;6.95;;;;;;;5.65;100.00;102032.44;5041650;28;20120;-55
2021/04/02 07:59:45;;;;;;;19.45;8.25;;;;;;;5.66;100.00;102020.91;5039441;28;20044;-55
2021/04/02 08:02:15;;;;;;;14.65;8.50;;;;;;;5.58;100.00;102023.19;5039384;28;20364;-56
2021/04/02 08:04:43;;;;;;;13.95;9.32;;;;;;;5.40;100.00;102017.31;5041760;28;20359;-56
2021/04/02 08:07:13;;;;;;;18.92;9.82;;;;;;;5.93;100.00;102024.47;5040440;28;20048;-55
2021/04/02 08:09:42;;;;;;;18.63;10.60;;;;;;;6.20;100.00;102035.88;5044657;28;20052;-55
2021/04/02 08:12:30;;;;;;;16.10;10.00;;;;;;;6.40;100.00;102035.47;5041810;28;20115;-55
2021/04/02 08:15:02;;;;;;;16.38;10.27;;;;;;;6.02;100.00;102034.47;5039787;28;20045;-54
2021/04/02 08:17:29;;;;;;;13.45;8.73;;;;;;;6.02;100.00;102032.69;5041263;28;20119;-57
2021/04/02 08:20:01;;;;;;;22.10;11.98;;;;;;;6.31;100.00;102036.97;5040073;28;20060;-56
2021/04/02 08:22:29;;;;;;;16.50;10.95;;;;;;;6.22;100.00;102032.28;5042887;28;20048;-56
2021/04/02 08:24:56;;;;;;;15.90;10.68;;;;;;;6.42;100.00;102038.88;5042329;28;20040;-55
2021/04/02 08:27:23;;;;;;;19.50;11.68;;;;;;;6.22;100.00;102045.53;5037604;28;20053;-56
2021/04/02 08:30:03;;;;;;;20.23;12.05;;;;;;;6.07;100.00;102047.41;5041552;28;20040;-56
2021/04/02 08:32:34;;;;;;;14.65;11.68;;;;;;;6.41;100.00;102048.63;5042078;28;20060;-56
2021/04/02 08:35:01;;;;;;;21.33;14.70;;;;;;;6.83;100.00;102041.28;5037761;28;20049;-56
2021/04/02 08:37:29;;;;;;;22.80;12.68;;;;;;;6.88;100.00;102047.09;5041515;28;20049;-56
2021/04/02 08:39:57;;;;;;;17.63;12.90;;;;;;;6.98;100.00;102046.47;5037607;28;20063;-55
2021/04/02 08:42:28;;;;;;;19.27;13.05;;;;;;;7.16;100.00;102055.78;5037199;28;20049;-56
2021/04/02 08:44:55;;;;;;;19.77;12.77;;;;;;;6.93;100.00;102051.25;5044389;28;20318;-56
2021/04/02 08:47:22;;;;;;;17.73;11.13;;;;;;;6.97;100.00;102058.03;5043069;28;20348;-56
2021/04/02 08:49:52;;;;;;;15.95;11.43;;;;;;;7.07;100.00;102061.72;5048505;28;20049;-55
2021/04/02 08:52:21;;;;;;;14.30;10.93;;;;;;;6.89;100.00;102062.09;5042367;28;20033;-56
2021/04/02 08:54:53;;;;;;;9.82;8.15;;;;;;;6.38;100.00;102059.47;5039649;28;20072;-55
2021/04/02 08:57:23;;;;;;;17.08;9.73;;;;;;;6.60;100.00;102068.59;5040628;28;20045;-55
2021/04/02 08:59:51;;;;;;;13.20;10.15;;;;;;;6.79;100.00;102068.16;5039869;28;20463;-55
2021/04/02 09:02:18;;;;;;;12.82;8.57;;;;;;;7.01;100.00;102063.00;5041611;28;20102;-55
2021/04/02 09:04:45;;;;;;;12.27;9.38;;;;;;;7.29;100.00;102068.19;5042669;28;20037;-56
2021/04/02 09:07:14;;;;;;;12.57;9.02;;;;;;;8.70;100.00;102063.84;5037321;28;20057;-54
2021/04/02 09:09:42;;;;;;;9.98;6.80;;;;;;;8.78;100.00;102062.25;5041000;28;20048;-56
2021/04/02 09:12:11;;;;;;;11.68;6.70;;;;;;;8.44;100.00;102064.03;5036995;28;20037;-56
2021/04/02 09:14:43;;;;;;;9.63;6.30;;;;;;;9.00;100.00;102067.72;5039185;28;20048;-54
2021/04/02 09:17:11;;;;;;;11.32;6.57;;;;;;;8.16;100.00;102076.78;5036769;28;20041;-54
2021/04/02 09:19:38;;;;;;;10.60;7.63;;;;;;;8.23;100.00;102067.38;5035633;28;20048;-55
2021/04/02 09:22:06;;;;;;;14.27;8.73;;;;;;;10.53;100.00;102072.00;5042562;28;20049;-54
2021/04/02 09:24:34;;;;;;;11.35;7.20;;;;;;;11.22;100.00;102070.47;5041144;28;20053;-55
2021/04/02 09:27:07;;;;;;;9.98;6.72;;;;;;;11.79;100.00;102056.47;5039296;28;20049;-56
2021/04/02 09:29:35;;;;;;;9.30;6.55;;;;;;;12.89;100.00;102058.63;5038622;28;20056;-54
2021/04/02 09:32:03;;;;;;;10.35;7.22;;;;;;;11.82;100.00;102048.16;5042358;28;20452;-56
2021/04/02 09:34:30;;;;;;;11.80;6.97;;;;;;;11.57;100.00;102055.75;5044476;28;20045;-56
2021/04/02 09:36:58;;;;;;;8.60;5.47;;;;;;;9.90;100.00;102048.81;5038420;28;20348;-56
2021/04/02 09:39:26;;;;;;;7.10;5.38;;;;;;;8.69;100.00;102062.13;5038281;28;20045;-55
2021/04/02 09:41:55;;;;;;;9.65;5.03;;;;;;;7.88;100.00;102057.59;5041076;28;20051;-55
2021/04/02 09:44:23;;;;;;;8.52;4.45;;;;;;;7.62;100.00;102056.03;5020592;28;20044;-55
2021/04/02 09:46:51;;;;;;;9.80;3.88;;;;;;;7.48;100.00;102057.88;5036452;28;20037;-54
2021/04/02 09:49:19;;;;;;;10.13;4.80;;;;;;;7.49;100.00;102053.44;5036954;28;20052;-54
2021/04/02 09:51:48;;;;;;;9.52;4.25;;;;;;;7.76;100.00;102056.69;5040704;28;20321;-56
2021/04/02 09:54:15;;;;;;;11.02;4.60;;;;;;;7.93;100.00;102044.78;5037301;28;20049;-56
2021/04/02 09:56:42;;;;;;;5.97;3.75;;;;;;;8.15;100.00;102055.63;5037937;28;20047;-56
2021/04/02 09:59:11;;;;;;;6.95;4.55;;;;;;;9.34;100.00;102049.84;5031978;28;20064;-54
2021/04/02 10:01:39;;;;;;;8.70;4.10;;;;;;;9.43;100.00;102056.28;5039322;28;20037;-55
2021/04/02 10:04:06;;;;;;;8.15;4.30;;;;;;;8.40;100.00;102057.25;5038496;28;20044;-56
2021/04/02 10:06:33;;;;;;;7.63;4.57;;;;;;;7.84;100.00;102048.16;5039792;28;20048;-56
2021/04/02 10:09:01;;;;;;;7.10;4.70;;;;;;;8.05;100.00;102042.16;5037984;28;20091;-56
2021/04/02 10:11:28;;;;;;;6.72;4.78;;;;;;;8.96;100.00;102043.16;5040442;28;20052;-54
2021/04/02 10:13:55;;;;;;;6.82;3.50;;;;;;;9.43;100.00;102050.94;5038401;28;20060;-55
2021/04/02 10:16:23;;;;;;;6.93;3.80;;;;;;;9.94;100.00;102038.75;5036312;28;20048;-56
2021/04/02 10:18:50;;;;;;;4.80;3.13;;;;;;;10.23;100.00;102043.41;5039063;28;20037;-56
2021/04/02 10:21:18;;;;;;;6.75;3.78;;;;;;;11.36;100.00;102040.66;5038275;28;20052;-56
2021/04/02 10:23:45;;;;;;;6.57;3.67;;;;;;;11.10;100.00;102039.47;5040639;28;20041;-56
2021/04/02 10:26:14;;;;;;;7.13;3.58;;;;;;;11.44;100.00;102031.94;5036819;28;20048;-54
2021/04/02 10:28:41;;;;;;;6.68;3.13;;;;;;;10.47;100.00;102040.50;5037208;28;20040;-56
2021/04/02 10:31:09;;;;;;;11.32;3.78;;;;;;;13.06;100.00;102037.41;5040699;28;20048;-57
2021/04/02 10:33:37;;;;;;;7.43;3.25;;;;;;;12.29;100.00;102042.91;5039687;28;20267;-56
2021/04/02 10:36:07;;;;;;;7.65;4.32;;;;;;;9.33;100.00;102034.84;5038302;28;20095;-53
2021/04/02 10:38:34;;;;;;;5.97;2.88;;;;;;;9.12;100.00;102040.94;5039989;28;20049;-56
2021/04/02 10:41:01;;;;;;;11.13;4.88;;;;;;;9.56;100.00;102040.94;5034425;28;20049;-55
2021/04/02 10:43:28;;;;;;;7.85;4.43;;;;;;;8.03;100.00;102036.97;5040641;28;20033;-53
2021/04/02 10:45:55;;;;;;;4.63;2.83;;;;;;;8.02;100.00;102050.38;5037897;28;20056;-54
2021/04/02 10:48:22;;;;;;;6.32;3.55;;;;;;;7.97;100.00;102048.06;5035586;28;20053;-54
2021/04/02 10:50:50;;;;;;;6.40;3.00;;;;;;;9.59;100.00;102051.34;5037151;28;20067;-55
2021/04/02 10:53:17;;;;;;;8.10;3.40;;;;;;;10.44;100.00;102040.75;5038133;28;20041;-55
2021/04/02 10:55:44;;;;;;;9.93;5.18;;;;;;;9.82;100.00;102048.59;5034139;28;20045;-55
2021/04/02 10:58:12;;;;;;;3.63;3.00;;;;;;;10.30;100.00;102047.25;5042161;28;20045;-55
2021/04/02 11:00:39;;;;;;;7.32;3.55;;;;;;;11.83;100.00;102037.28;5038384;28;20045;-56
2021/04/02 11:03:10;;;;;;;8.40;3.28;;;;;;;12.67;100.00;102041.13;5040515;28;20047;-56
2021/04/02 11:05:37;;;;;;;7.03;2.95;;;;;;;13.17;100.00;102033.66;5039522;28;20042;-55
2021/04/02 11:08:05;;;;;;;8.48;3.47;;;;;;;11.42;100.00;102033.06;5036072;28;20467;-56
2021/04/02 11:10:33;;;;;;;8.15;3.63;;;;;;;8.75;100.00;102041.22;5039527;28;20043;-53
2021/04/02 11:13:00;;;;;;;6.97;3.83;;;;;;;8.35;100.00;102044.31;5047928;28;20044;-54
2021/04/02 11:15:27;;;;;;;8.43;3.45;;;;;;;8.68;100.00;102034.66;5038694;28;20337;-52
2021/04/02 11:17:54;;;;;;;8.43;3.88;;;;;;;8.13;100.00;102037.09;5041990;28;20052;-55
2021/04/02 11:20:25;;;;;;;7.40;2.70;;;;;;;9.13;100.00;102033.81;5045961;28;21016;-54